Terminal Aerodrome Forecast
Issued by NWS Lake Charles, LA

Home | Current Version | Previous Version | Text Only | Print | Product List | Glossary On
Versions: 1 2 3 4 5 6 7 8 9 10 11 12 13 14 15 16 17 18 19 20
000
FTUS44 KLCH 062320
TAFAEX
TAF
KAEX 062320Z 0700/0724 18008KT P6SM FEW035
      TEMPO 0709/0713 5SM BR BKN025
     FM071600 19011G19KT P6SM VCSH SCT040=

USA.gov is the U.S. government's official web portal to all federal, state and local government web resources and services.